createdAt,value
2022-10-06T00:01:04.636Z,2.63
2022-10-06T00:03:32.577Z,3.13
2022-10-06T00:06:01.689Z,2.90
2022-10-06T00:08:31.438Z,3.30
2022-10-06T00:11:01.021Z,3.43
2022-10-06T00:13:29.575Z,3.37
2022-10-06T00:15:57.822Z,3.00
2022-10-06T00:18:27.937Z,3.00
2022-10-06T00:20:57.028Z,2.80
2022-10-06T00:23:25.515Z,3.13
2022-10-06T00:25:53.270Z,3.10
2022-10-06T00:28:21.191Z,2.90
2022-10-06T00:30:51.043Z,2.50
2022-10-06T00:33:19.149Z,2.33
2022-10-06T00:35:48.517Z,2.97
2022-10-06T00:38:18.131Z,2.83
2022-10-06T00:40:49.692Z,2.90
2022-10-06T00:43:47.289Z,2.90
2022-10-06T00:46:19.660Z,3.27
2022-10-06T00:48:53.577Z,3.20
2022-10-06T00:51:23.842Z,3.50
2022-10-06T00:53:52.007Z,2.47
2022-10-06T00:56:19.849Z,2.90
2022-10-06T00:58:47.678Z,3.07
2022-10-06T01:01:15.759Z,2.80
2022-10-06T01:03:47.592Z,3.50
2022-10-06T01:06:15.704Z,2.83
2022-10-06T01:08:45.291Z,3.37
2022-10-06T01:11:14.188Z,3.07
2022-10-06T01:13:43.781Z,3.20
2022-10-06T01:16:17.063Z,3.10
2022-10-06T01:18:47.197Z,3.00
2022-10-06T01:21:22.684Z,2.90
2022-10-06T01:23:52.910Z,2.70
2022-10-06T01:26:24.308Z,2.80
2022-10-06T01:28:52.733Z,3.63
2022-10-06T01:31:20.927Z,2.47
2022-10-06T01:33:52.597Z,2.77
2022-10-06T01:36:20.403Z,2.80
2022-10-06T01:38:48.121Z,2.90
2022-10-06T01:41:17.125Z,2.43
2022-10-06T01:43:44.749Z,3.37
2022-10-06T01:46:12.948Z,3.00
2022-10-06T01:48:40.676Z,3.83
2022-10-06T01:51:09.257Z,2.90
2022-10-06T01:53:37.091Z,2.97
2022-10-06T01:56:04.776Z,3.03
2022-10-06T01:58:34.421Z,2.63
2022-10-06T02:01:06.081Z,2.70
2022-10-06T02:03:35.110Z,2.80
2022-10-06T02:06:03.014Z,2.57
2022-10-06T02:08:31.187Z,2.70
2022-10-06T02:10:59.053Z,2.80
2022-10-06T02:13:27.916Z,2.40
2022-10-06T02:15:58.121Z,2.43
2022-10-06T02:18:26.683Z,2.77
2022-10-06T02:20:54.963Z,3.10
2022-10-06T02:23:22.582Z,2.73
2022-10-06T02:25:50.330Z,4.20
2022-10-06T02:28:18.042Z,3.17
2022-10-06T02:30:46.043Z,3.00
2022-10-06T02:33:15.010Z,3.07
2022-10-06T02:35:43.922Z,2.67
2022-10-06T02:38:11.648Z,2.87
2022-10-06T02:40:39.340Z,2.93
2022-10-06T02:43:07.036Z,3.00
2022-10-06T02:45:34.673Z,3.07
2022-10-06T02:48:02.286Z,2.93
2022-10-06T02:50:31.258Z,3.70
2022-10-06T02:52:59.125Z,3.47
2022-10-06T02:55:26.892Z,3.17
2022-10-06T02:57:55.107Z,2.97
2022-10-06T03:00:22.781Z,3.83
2022-10-06T03:02:50.539Z,3.10
2022-10-06T03:05:18.410Z,3.00
2022-10-06T03:07:47.515Z,2.67
2022-10-06T03:10:15.322Z,3.10
2022-10-06T03:12:42.941Z,2.87
2022-10-06T03:15:11.329Z,3.00
2022-10-06T03:17:39.073Z,3.20
2022-10-06T03:20:07.959Z,3.23
2022-10-06T03:22:35.537Z,3.37
2022-10-06T03:25:05.375Z,3.30
2022-10-06T03:27:33.103Z,3.13
2022-10-06T03:30:00.698Z,4.20
2022-10-06T03:32:28.368Z,3.67
2022-10-06T03:34:55.959Z,3.33
2022-10-06T03:37:23.898Z,3.33
2022-10-06T03:39:51.694Z,2.73
2022-10-06T03:42:20.701Z,3.70
2022-10-06T03:44:48.439Z,2.80
2022-10-06T03:47:17.510Z,3.50
2022-10-06T03:49:45.570Z,3.50
2022-10-06T03:52:13.171Z,3.53
2022-10-06T03:54:40.785Z,3.23
2022-10-06T03:57:08.644Z,3.33
2022-10-06T03:59:37.640Z,3.80
2022-10-06T04:02:05.516Z,3.80
2022-10-06T04:04:33.548Z,3.70
2022-10-06T04:07:01.239Z,3.60
2022-10-06T04:09:28.992Z,3.50
2022-10-06T04:11:56.638Z,4.23
2022-10-06T04:14:24.324Z,3.27
2022-10-06T04:16:53.626Z,3.20
2022-10-06T04:19:21.636Z,3.70
2022-10-06T04:21:49.770Z,3.47
2022-10-06T04:24:18.443Z,4.03
2022-10-06T04:26:48.957Z,3.40
2022-10-06T04:29:17.120Z,3.73
2022-10-06T04:31:44.975Z,3.23
2022-10-06T04:34:14.397Z,3.50
2022-10-06T04:36:43.809Z,3.33
2022-10-06T04:39:13.098Z,3.73
2022-10-06T04:41:47.313Z,3.73
2022-10-06T04:44:15.299Z,4.43
2022-10-06T04:46:58.313Z,4.90
2022-10-06T04:49:27.337Z,4.60
2022-10-06T04:51:55.004Z,4.77
2022-10-06T04:54:22.640Z,4.33
2022-10-06T04:56:50.693Z,4.47
2022-10-06T04:59:18.509Z,4.40
2022-10-06T05:01:46.181Z,4.53
2022-10-06T05:04:13.983Z,4.47
2022-10-06T05:06:43.647Z,4.17
2022-10-06T05:09:13.691Z,3.83
2022-10-06T05:11:41.546Z,3.70
2022-10-06T05:14:09.176Z,3.90
2022-10-06T05:16:38.010Z,4.50
2022-10-06T05:19:06.237Z,4.43
2022-10-06T05:21:34.185Z,3.77
2022-10-06T05:24:03.688Z,4.20
2022-10-06T05:26:35.627Z,3.63
2022-10-06T05:29:03.693Z,4.03
2022-10-06T05:31:33.336Z,4.07
2022-10-06T05:34:01.108Z,3.60
2022-10-06T05:36:30.072Z,4.33
2022-10-06T05:38:58.457Z,4.03
2022-10-06T05:41:29.718Z,3.53
2022-10-06T05:43:58.328Z,3.80
2022-10-06T05:46:28.447Z,4.07
2022-10-06T05:48:57.894Z,4.90
2022-10-06T05:51:30.556Z,4.07
2022-10-06T05:53:59.316Z,4.50
2022-10-06T05:56:30.367Z,4.93
2022-10-06T05:58:59.940Z,3.93
2022-10-06T06:01:29.001Z,5.17
2022-10-06T06:04:00.354Z,4.43
2022-10-06T06:06:30.318Z,4.53
2022-10-06T06:09:00.306Z,3.77
2022-10-06T06:11:31.589Z,3.70
2022-10-06T06:14:01.218Z,4.43
2022-10-06T06:16:30.905Z,4.73
2022-10-06T06:18:59.311Z,4.77
2022-10-06T06:21:27.597Z,4.00
2022-10-06T06:23:55.667Z,4.23
2022-10-06T06:26:25.471Z,3.90
2022-10-06T06:28:56.387Z,4.00
2022-10-06T06:31:28.005Z,4.37
2022-10-06T06:33:57.537Z,4.37
2022-10-06T06:36:27.124Z,3.97
2022-10-06T06:38:56.704Z,4.40
2022-10-06T06:41:26.568Z,3.83
2022-10-06T06:43:56.279Z,4.50
2022-10-06T06:46:26.615Z,4.30
2022-10-06T06:48:55.607Z,4.20
2022-10-06T06:51:26.648Z,4.20
2022-10-06T06:53:55.140Z,4.30
2022-10-06T06:56:22.888Z,4.07
2022-10-06T06:58:50.660Z,4.20
2022-10-06T07:01:21.141Z,4.03
2022-10-06T07:03:58.820Z,4.30
2022-10-06T07:06:29.354Z,4.83
2022-10-06T07:08:58.351Z,4.20
2022-10-06T07:11:28.659Z,4.40
2022-10-06T07:13:58.870Z,4.17
2022-10-06T07:16:46.321Z,4.87
2022-10-06T07:19:32.748Z,4.70
2022-10-06T07:22:19.957Z,4.17
2022-10-06T07:25:05.756Z,4.60
2022-10-06T07:27:35.693Z,3.90
2022-10-06T07:30:03.850Z,4.10
2022-10-06T07:32:33.748Z,3.93
2022-10-06T07:35:01.462Z,3.40
2022-10-06T07:37:29.856Z,3.50
2022-10-06T07:39:57.550Z,3.77
2022-10-06T07:42:25.448Z,3.23
2022-10-06T07:45:07.205Z,3.33
2022-10-06T07:47:38.253Z,3.07
2022-10-06T07:50:07.411Z,2.30
2022-10-06T07:52:39.516Z,2.20
2022-10-06T07:55:08.288Z,2.40
2022-10-06T07:57:36.119Z,2.73
2022-10-06T08:00:07.367Z,2.90
2022-10-06T08:02:36.584Z,2.33
2022-10-06T08:05:04.952Z,2.00
2022-10-06T08:07:33.007Z,2.83
2022-10-06T08:10:00.863Z,2.13
2022-10-06T08:12:34.409Z,1.67
2022-10-06T08:15:07.066Z,1.53
2022-10-06T08:17:37.427Z,2.00
2022-10-06T08:20:07.135Z,2.47
2022-10-06T08:22:36.193Z,2.00
2022-10-06T08:25:08.345Z,1.70
2022-10-06T08:27:37.953Z,1.80
2022-10-06T08:30:07.868Z,1.63
2022-10-06T08:32:37.597Z,2.17
2022-10-06T08:35:05.741Z,1.60
2022-10-06T08:37:33.652Z,2.20
2022-10-06T08:40:01.493Z,1.50
2022-10-06T08:42:36.589Z,1.50
2022-10-06T08:45:07.600Z,1.77
2022-10-06T08:47:38.318Z,1.67
2022-10-06T08:50:13.564Z,1.30
2022-10-06T08:52:56.992Z,1.73
2022-10-06T08:55:35.643Z,1.80
2022-10-06T08:58:22.886Z,1.40
2022-10-06T09:00:56.662Z,1.57
2022-10-06T09:03:30.713Z,1.40
2022-10-06T09:06:09.591Z,1.50
2022-10-06T09:08:49.393Z,1.47
2022-10-06T09:11:34.103Z,1.60
2022-10-06T09:14:05.364Z,1.87
2022-10-06T09:16:37.054Z,1.50
2022-10-06T09:19:14.981Z,2.20
2022-10-06T09:21:46.746Z,1.40
2022-10-06T09:24:18.680Z,1.57
2022-10-06T09:26:49.628Z,2.10
2022-10-06T09:29:17.905Z,1.70
2022-10-06T09:31:50.891Z,1.70
2022-10-06T09:34:29.074Z,1.70
2022-10-06T09:37:02.867Z,1.53
2022-10-06T09:39:36.442Z,1.87
2022-10-06T09:42:08.562Z,1.70
2022-10-06T09:44:47.034Z,1.70
2022-10-06T09:47:33.066Z,1.57
2022-10-06T09:50:21.907Z,1.60
2022-10-06T09:53:16.302Z,1.97
2022-10-06T09:55:48.476Z,2.00
2022-10-06T09:58:22.228Z,1.60
2022-10-06T10:00:54.421Z,1.50
2022-10-06T10:03:22.944Z,1.40
2022-10-06T10:05:54.859Z,1.80
2022-10-06T10:08:24.797Z,1.70
2022-10-06T10:11:33.165Z,1.67
2022-10-06T10:14:01.299Z,1.70
2022-10-06T10:16:34.763Z,1.77
2022-10-06T10:19:04.164Z,1.80
2022-10-06T10:21:35.547Z,2.23
2022-10-06T10:24:06.163Z,1.90
2022-10-06T10:26:46.681Z,2.37
2022-10-06T10:29:43.528Z,1.70
2022-10-06T10:32:17.160Z,1.67
2022-10-06T10:35:05.819Z,1.70
2022-10-06T10:37:42.064Z,1.90
2022-10-06T10:40:18.991Z,1.50
2022-10-06T10:42:51.818Z,1.17
2022-10-06T10:45:25.838Z,1.67
2022-10-06T10:47:54.978Z,1.50
2022-10-06T10:50:26.737Z,1.40
2022-10-06T10:52:59.233Z,1.37
2022-10-06T10:55:30.707Z,1.33
2022-10-06T10:58:05.532Z,1.70
2022-10-06T11:00:39.456Z,1.97
2022-10-06T11:03:07.446Z,1.60
2022-10-06T11:05:56.149Z,1.60
2022-10-06T11:08:35.263Z,1.60
2022-10-06T11:11:08.991Z,1.60
2022-10-06T11:13:41.628Z,1.30
2022-10-06T11:16:18.466Z,1.23
2022-10-06T11:19:01.307Z,1.60
2022-10-06T11:21:36.385Z,2.23
2022-10-06T11:24:15.843Z,1.93
2022-10-06T11:26:57.793Z,2.00
2022-10-06T11:29:37.440Z,1.60
2022-10-06T11:32:18.965Z,1.50
2022-10-06T11:34:51.038Z,1.60
2022-10-06T11:37:28.136Z,1.70
2022-10-06T11:40:16.301Z,1.80
2022-10-06T11:42:51.871Z,1.97
2022-10-06T11:45:28.843Z,2.03
2022-10-06T11:48:18.948Z,1.40
2022-10-06T11:50:49.130Z,1.63
2022-10-06T11:53:28.916Z,2.03
2022-10-06T11:56:38.561Z,1.80
2022-10-06T11:59:28.517Z,1.40
2022-10-06T12:01:57.662Z,2.00
2022-10-06T12:04:27.420Z,1.83
2022-10-06T12:07:02.945Z,1.50
2022-10-06T12:09:40.611Z,1.70
2022-10-06T12:13:05.349Z,1.70
2022-10-06T12:19:18.674Z,1.40
2022-10-06T12:21:55.626Z,1.63
2022-10-06T12:24:36.871Z,1.90
2022-10-06T12:27:27.389Z,1.60
2022-10-06T12:30:03.860Z,1.60
2022-10-06T12:32:43.104Z,1.63
2022-10-06T12:35:23.868Z,1.57
2022-10-06T12:37:54.623Z,1.67
2022-10-06T12:40:55.806Z,2.27
2022-10-06T12:43:58.494Z,1.90
2022-10-06T12:46:37.441Z,1.67
2022-10-06T12:49:35.373Z,1.93
2022-10-06T12:52:14.024Z,1.80
2022-10-06T12:54:47.843Z,1.60
2022-10-06T12:57:18.577Z,1.50
2022-10-06T12:59:46.982Z,2.00
2022-10-06T13:02:21.205Z,1.57
2022-10-06T13:04:53.804Z,1.50
2022-10-06T13:07:23.957Z,1.47
2022-10-06T13:09:53.936Z,1.30
2022-10-06T13:12:24.869Z,1.70
2022-10-06T13:15:14.733Z,2.13
2022-10-06T13:17:47.098Z,2.17
2022-10-06T13:20:25.472Z,1.83
2022-10-06T13:23:00.599Z,1.50
2022-10-06T13:25:36.690Z,2.30
2022-10-06T13:28:04.569Z,1.67
2022-10-06T13:30:37.695Z,1.97
2022-10-06T13:33:09.853Z,2.20
2022-10-06T13:35:38.153Z,1.87
2022-10-06T13:38:06.435Z,2.30
2022-10-06T13:40:47.794Z,1.87
2022-10-06T13:43:19.320Z,1.67
2022-10-06T13:45:48.753Z,1.80
2022-10-06T13:48:21.103Z,1.93
2022-10-06T13:50:50.165Z,2.53
2022-10-06T13:53:30.270Z,2.03
2022-10-06T13:55:58.803Z,1.50
2022-10-06T13:58:28.295Z,1.50
2022-10-06T14:01:00.424Z,1.90
2022-10-06T14:06:09.883Z,1.80
2022-10-06T14:08:38.564Z,1.67
2022-10-06T14:11:09.110Z,2.70
2022-10-06T14:13:45.431Z,1.67
2022-10-06T14:16:21.729Z,1.87
2022-10-06T14:18:57.202Z,2.20
2022-10-06T14:21:36.420Z,2.20
2022-10-06T14:24:07.663Z,2.07
2022-10-06T14:26:37.631Z,1.80
2022-10-06T14:29:05.558Z,2.17
2022-10-06T14:31:34.115Z,1.40
2022-10-06T14:34:04.803Z,2.00
2022-10-06T14:36:34.468Z,1.80
2022-10-06T14:39:03.606Z,1.83
2022-10-06T14:41:31.871Z,2.67
2022-10-06T14:44:02.079Z,1.90
2022-10-06T14:46:31.032Z,1.70
2022-10-06T14:48:59.052Z,2.20
2022-10-06T14:51:29.328Z,1.40
2022-10-06T14:53:59.953Z,1.60
2022-10-06T14:56:30.092Z,1.90
2022-10-06T14:59:00.091Z,2.23
2022-10-06T15:01:29.899Z,2.00
2022-10-06T15:03:59.938Z,1.73
2022-10-06T15:06:47.454Z,2.03
2022-10-06T15:09:15.896Z,2.27
2022-10-06T15:11:43.982Z,1.90
2022-10-06T15:14:11.799Z,1.77
2022-10-06T15:16:42.373Z,2.20
2022-10-06T15:19:11.861Z,2.00
2022-10-06T15:21:45.111Z,2.10
2022-10-06T15:24:15.061Z,2.30
2022-10-06T15:27:00.956Z,2.20
2022-10-06T15:29:28.867Z,3.43
2022-10-06T15:31:58.613Z,2.50
2022-10-06T15:34:27.802Z,1.50
2022-10-06T15:36:58.116Z,1.90
2022-10-06T15:39:27.506Z,1.87
2022-10-06T15:41:55.543Z,2.03
2022-10-06T15:44:24.234Z,2.17
2022-10-06T15:46:53.305Z,2.43
2022-10-06T15:49:23.136Z,2.10
2022-10-06T15:51:53.424Z,2.13
2022-10-06T15:54:24.632Z,2.30
2022-10-06T15:56:54.180Z,2.23
2022-10-06T15:59:24.178Z,2.50
2022-10-06T16:01:56.044Z,2.20
2022-10-06T16:04:31.548Z,2.10
2022-10-06T16:06:59.964Z,2.37
2022-10-06T16:09:31.359Z,2.13
2022-10-06T16:12:00.358Z,2.23
2022-10-06T16:14:28.151Z,2.00
2022-10-06T16:16:59.816Z,2.27
2022-10-06T16:19:29.211Z,2.40
2022-10-06T16:21:59.148Z,2.53
2022-10-06T16:24:29.390Z,1.87
2022-10-06T16:26:58.012Z,2.80
2022-10-06T16:29:25.684Z,2.33
2022-10-06T16:31:53.572Z,1.90
2022-10-06T16:34:21.293Z,1.90
2022-10-06T16:36:49.042Z,1.97
2022-10-06T16:39:19.063Z,2.57
2022-10-06T16:41:48.234Z,2.37
2022-10-06T16:44:16.124Z,1.77
2022-10-06T16:46:44.288Z,1.70
2022-10-06T16:49:12.113Z,1.37
2022-10-06T16:51:41.778Z,2.23
2022-10-06T16:54:10.926Z,2.10
2022-10-06T16:56:40.503Z,2.20
2022-10-06T16:59:14.687Z,1.70
2022-10-06T17:01:43.023Z,1.97
2022-10-06T17:04:13.404Z,1.70
2022-10-06T17:06:43.544Z,2.47
2022-10-06T17:09:14.097Z,2.30
2022-10-06T17:11:43.728Z,2.33
2022-10-06T17:14:13.385Z,2.33
2022-10-06T17:16:43.530Z,3.50
2022-10-06T17:19:13.156Z,2.23
2022-10-06T17:21:46.097Z,3.30
2022-10-06T17:24:17.651Z,3.23
2022-10-06T17:26:47.700Z,3.50
2022-10-06T17:29:20.628Z,3.93
2022-10-06T17:31:49.722Z,4.00
2022-10-06T17:34:21.410Z,3.90
2022-10-06T17:36:51.619Z,3.17
2022-10-06T17:39:21.275Z,2.50
2022-10-06T17:41:51.396Z,2.80
2022-10-06T17:44:24.107Z,2.57
2022-10-06T17:46:55.147Z,2.20
2022-10-06T17:49:23.993Z,2.60
2022-10-06T17:51:53.392Z,2.10
2022-10-06T17:54:23.313Z,4.13
2022-10-06T17:56:53.141Z,3.43
2022-10-06T17:59:24.573Z,2.90
2022-10-06T18:01:56.392Z,3.33
2022-10-06T18:04:24.746Z,3.27
2022-10-06T18:06:53.890Z,2.80
2022-10-06T18:09:22.266Z,3.30
2022-10-06T18:11:54.607Z,2.87
2022-10-06T18:14:25.470Z,3.00
2022-10-06T18:16:56.455Z,2.70
2022-10-06T18:19:26.756Z,3.10
2022-10-06T18:21:56.549Z,2.73
2022-10-06T18:24:26.266Z,3.80
2022-10-06T18:26:56.674Z,4.23
2022-10-06T18:29:29.018Z,3.17
2022-10-06T18:32:15.111Z,2.80
2022-10-06T18:37:32.914Z,2.50
2022-10-06T18:40:02.406Z,2.80
2022-10-06T18:42:30.157Z,2.80
2022-10-06T18:45:16.937Z,3.17
2022-10-06T18:48:02.116Z,3.43
2022-10-06T18:50:31.031Z,2.80
2022-10-06T18:52:59.120Z,4.00
2022-10-06T18:55:29.636Z,3.30
2022-10-06T18:57:57.360Z,3.00
2022-10-06T19:00:26.920Z,3.03
2022-10-06T19:02:57.014Z,3.60
2022-10-06T19:05:25.400Z,2.70
2022-10-06T19:07:54.724Z,2.50
2022-10-06T19:10:22.897Z,3.23
2022-10-06T19:12:50.673Z,2.90
2022-10-06T19:15:20.969Z,3.20
2022-10-06T19:17:50.843Z,2.90
2022-10-06T19:20:19.250Z,2.50
2022-10-06T19:22:47.360Z,3.20
2022-10-06T19:25:18.501Z,2.90
2022-10-06T19:27:46.309Z,4.07
2022-10-06T19:30:14.515Z,3.27
2022-10-06T19:32:42.205Z,4.50
2022-10-06T19:35:11.196Z,5.97
2022-10-06T19:37:39.120Z,6.67
2022-10-06T19:40:08.801Z,5.10
2022-10-06T19:42:47.791Z,3.73
2022-10-06T19:45:16.511Z,3.97
2022-10-06T19:47:45.497Z,3.80
2022-10-06T19:50:16.952Z,3.33
2022-10-06T19:52:45.484Z,3.70
2022-10-06T19:55:13.476Z,3.90
2022-10-06T19:57:41.551Z,4.33
2022-10-06T20:00:11.690Z,3.83
2022-10-06T20:02:42.404Z,4.00
2022-10-06T20:05:11.783Z,4.00
2022-10-06T20:07:41.341Z,4.43
2022-10-06T20:10:09.768Z,3.63
2022-10-06T20:12:38.364Z,3.33
2022-10-06T20:15:07.160Z,3.37
2022-10-06T20:17:35.290Z,3.37
2022-10-06T20:20:04.384Z,3.70
2022-10-06T20:22:32.768Z,3.63
2022-10-06T20:25:02.601Z,3.50
2022-10-06T20:27:30.607Z,3.83
2022-10-06T20:29:58.999Z,3.70
2022-10-06T20:32:27.490Z,4.00
2022-10-06T20:34:55.226Z,3.70
2022-10-06T20:37:23.265Z,4.07
2022-10-06T20:40:08.712Z,4.30
2022-10-06T20:42:37.877Z,3.37
2022-10-06T20:45:07.061Z,4.00
2022-10-06T20:47:36.116Z,4.67
2022-10-06T20:50:03.963Z,3.57
2022-10-06T20:52:31.647Z,4.37
2022-10-06T20:54:59.339Z,3.70
2022-10-06T20:57:32.861Z,4.20
2022-10-06T21:00:03.344Z,3.50
2022-10-06T21:02:31.979Z,4.00
2022-10-06T21:04:59.913Z,3.80
2022-10-06T21:07:27.647Z,3.60
2022-10-06T21:09:55.419Z,4.10
2022-10-06T21:12:23.094Z,4.10
2022-10-06T21:14:50.832Z,3.50
2022-10-06T21:17:19.852Z,4.17
2022-10-06T21:19:47.574Z,3.90
2022-10-06T21:22:15.206Z,3.80
2022-10-06T21:24:42.915Z,3.30
2022-10-06T21:27:10.594Z,3.80
2022-10-06T21:29:38.996Z,4.27
2022-10-06T21:32:06.628Z,3.30
2022-10-06T21:34:35.800Z,3.53
2022-10-06T21:37:03.492Z,3.50
2022-10-06T21:39:31.159Z,3.80
2022-10-06T21:41:59.018Z,3.30
2022-10-06T21:44:26.742Z,3.27
2022-10-06T21:46:56.057Z,3.10
2022-10-06T21:49:25.168Z,4.27
2022-10-06T21:51:55.788Z,4.30
2022-10-06T21:54:24.324Z,3.30
2022-10-06T21:56:52.488Z,4.70
2022-10-06T21:59:20.386Z,4.17
2022-10-06T22:01:49.773Z,3.90
2022-10-06T22:04:17.995Z,3.33
2022-10-06T22:06:49.855Z,3.53
2022-10-06T22:09:20.642Z,4.57
2022-10-06T22:11:48.553Z,4.20
2022-10-06T22:14:18.453Z,4.00
2022-10-06T22:16:46.431Z,3.47
2022-10-06T22:19:16.190Z,4.37
2022-10-06T22:21:45.510Z,4.17
2022-10-06T22:24:15.072Z,4.10
2022-10-06T22:26:45.079Z,3.70
2022-10-06T22:29:15.149Z,3.97
2022-10-06T22:31:44.751Z,3.73
2022-10-06T22:34:14.753Z,3.40
2022-10-06T22:36:42.410Z,3.97
2022-10-06T22:39:10.160Z,3.40
2022-10-06T22:41:37.863Z,4.07
2022-10-06T22:44:07.073Z,3.13
2022-10-06T22:46:36.794Z,3.77
2022-10-06T22:49:05.034Z,3.37
2022-10-06T22:51:32.913Z,3.37
2022-10-06T22:54:01.185Z,3.27
2022-10-06T22:56:31.458Z,3.37
2022-10-06T22:59:00.421Z,3.70
2022-10-06T23:01:30.580Z,3.70
2022-10-06T23:03:58.581Z,3.50
2022-10-06T23:06:27.018Z,3.47
2022-10-06T23:08:54.994Z,3.57
2022-10-06T23:11:23.460Z,3.57
2022-10-06T23:13:53.077Z,3.67
2022-10-06T23:16:21.813Z,3.47
2022-10-06T23:18:52.181Z,3.60
2022-10-06T23:21:22.630Z,3.27
2022-10-06T23:23:53.136Z,3.00
2022-10-06T23:26:23.035Z,3.67
2022-10-06T23:28:55.690Z,3.00
2022-10-06T23:31:23.833Z,3.50
2022-10-06T23:33:55.205Z,3.63
2022-10-06T23:36:22.905Z,3.20
2022-10-06T23:38:50.616Z,3.37
2022-10-06T23:41:18.330Z,3.03
2022-10-06T23:43:46.174Z,3.17
2022-10-06T23:46:15.046Z,3.30
2022-10-06T23:48:43.628Z,2.63
2022-10-06T23:51:15.209Z,3.13
2022-10-06T23:53:43.613Z,2.80
2022-10-06T23:56:11.847Z,2.93
2022-10-06T23:58:39.582Z,2.93
